Flight Track Log - Related Links

Times and Time Zones

All times are in EDT time to prevent confusion due to time zone crossing. See the ASQ6111 flight status page for this flight to view local times or setup timezone preferences in your user account.

Time Position Orientation Groundspeed Altitude Reporting Facility
EDT Latitude Longitude Course Direction KTS MPH feet Rate Location/Type
Sun 10:53:48 PM 39.8833 -104.6167 108° East 174 200 6,300  Level Denver TRACON
Sun 10:54:48 PM 39.8667 -104.5500 108° East 203 234 8,300 1,789 Climbing Denver TRACON
Sun 10:55:42 PM 39.8333 -104.4667 117° Southeast 269 310 9,700 1,773 Climbing Denver TRACON
Sun 10:56:16 PM 39.8197 -104.4214 111° Southeast 283 326 10,900 1,768 Climbing Denver Center
Sun 10:57:17 PM 39.8067 -104.3103 99° East 317 365 12,500 1,512 Climbing Denver Center
Sun 10:58:19 PM 39.7911 -104.1742 98° East 353 406 14,000 1,512 Climbing Denver Center
Sun 10:59:20 PM 39.7756 -104.0339 98° East 388 447 15,600 1,721 Climbing Denver Center
Sun 11:00:21 PM 39.7608 -103.8919 98° East 401 461 17,500 1,659 Climbing Denver Center
Sun 11:01:23 PM 39.7428 -103.7492 99° East 408 470 19,000 1,854 Climbing Denver Center
Sun 11:02:24 PM 39.7308 -103.6031 96° East 395 455 21,300 2,066 Climbing Denver Center
Sun 11:03:25 PM 39.7194 -103.4600 96° East 395 455 23,200 1,902 Climbing Denver Center
Sun 11:04:27 PM 39.7083 -103.3150 96° East 398 458 25,200 1,756 Climbing Denver Center
Sun 11:05:28 PM 39.6958 -103.1714 96° East 399 459 26,800 1,415 Climbing Denver Center
Sun 11:06:30 PM 39.6831 -103.0242 96° East 405 466 28,100 1,268 Climbing Denver Center
Sun 11:07:31 PM 39.6717 -102.8747 96° East 411 473 29,400 1,230 Climbing Denver Center
Sun 11:08:32 PM 39.6558 -102.7069 97° East 421 484 30,600 1,073 Climbing Denver Center
Sun 11:09:34 PM 39.6442 -102.5594 96° East 429 494 31,600 1,024 Climbing Denver Center
Sun 11:10:35 PM 39.6269 -102.3814 97° East 443 510 32,700 984 Climbing Denver Center
Sun 11:11:36 PM 39.6139 -102.2272 96° East 451 519 33,600 927 Climbing Denver Center
Sun 11:12:38 PM 39.6000 -102.0711 97° East 456 525 34,600 683 Climbing Denver Center
Sun 11:13:39 PM 39.5864 -101.9136 96° East 459 528 35,000 197 Climbing Denver Center
Sun 11:14:40 PM 39.5706 -101.7208 96° East 483 556 35,000  Level Denver Center
Sun 11:15:42 PM 39.5539 -101.5214 96° East 500 575 35,000  Level Denver Center
Sun 11:16:43 PM 39.5369 -101.3508 97° East 501 577 35,000  Level Denver Center
Sun 11:17:44 PM 39.5119 -101.1844 101° East 495 570 35,000  Level Denver Center
Sun 11:18:46 PM 39.4831 -100.9906 101° East 493 567 35,000  Level Denver Center
Sun 11:19:47 PM 39.4578 -100.8258 101° East 490 564 35,000  Level Denver Center
Sun 11:20:48 PM 39.4286 -100.6317 101° East 493 567 35,000  Level Denver Center
Sun 11:21:49 PM 39.4036 -100.4667 101° East 492 566 35,000  Level Denver Center
Sun 11:22:51 PM 39.3772 -100.2978 101° East 498 573 35,000  Level Denver Center
Sun 11:23:52 PM 39.3461 -100.1047 102° East 496 571 35,000  Level Denver Center
Sun 11:24:53 PM 39.3192 -99.9356 102° East 499 574 35,000  Level Denver Center
Sun 11:25:54 PM 39.2886 -99.7408 101° East 497 572 35,000  Level Denver Center
Sun 11:26:56 PM 39.2619 -99.5750 102° East 496 571 35,000  Level Denver Center
Sun 11:27:57 PM 39.2347 -99.4103 102° East 494 568 35,000  Level Denver Center
Sun 11:28:58 PM 39.2050 -99.2203 101° East 488 562 35,000  Level Denver Center
Sun 11:30:00 PM 39.2258 -99.0572 81° East 480 552 35,000  Level Denver Center
Sun 11:31:01 PM 39.2561 -98.8781 78° East 484 557 35,000  Level Denver Center
Sun 11:32:02 PM 39.2842 -98.7108 78° East 479 551 35,000  Level Denver Center
Sun 11:33:03 PM 39.3128 -98.5444 77° East 477 549 35,000  Level Denver Center
Sun 11:34:04 PM 39.3394 -98.3775 78° East 477 549 35,000  Level Denver Center
Sun 11:34:41 PM 39.3558 -98.2744 78° East 475 547 35,000  Level Kansas City Center
Sun 11:35:42 PM 39.3822 -98.1125 78° East 472 543 35,000  Level Kansas City Center
Sun 11:36:43 PM 39.4133 -97.9258 78° East 474 545 35,000  Level Kansas City Center
Sun 11:37:44 PM 39.4381 -97.7747 78° East 478 550 35,000  Level Kansas City Center
Sun 11:38:44 PM 39.4636 -97.6075 79° East 475 547 35,000  Level Kansas City Center
Sun 11:39:42 PM 39.4917 -97.4208 79° East 467 537 35,000  Level Kansas City Center
Sun 11:40:43 PM 39.5214 -97.2433 78° East 474 545 35,000  Level Kansas City Center
Sun 11:41:44 PM 39.5428 -97.0897 80° East 476 548 35,000  Level Kansas City Center
Sun 11:42:47 PM 39.5686 -96.9225 79° East 474 545 35,000  Level Kansas City Center
Sun 11:43:48 PM 39.5956 -96.7400 79° East 476 548 35,000  Level Kansas City Center
Sun 11:44:47 PM 39.6192 -96.5736 80° East 471 542 35,000  Level Kansas City Center
Sun 11:45:50 PM 39.6425 -96.4181 79° East 475 547 35,000  Level Kansas City Center
Sun 11:46:50 PM 39.6731 -96.2525 76° East 474 545 35,000  Level Kansas City Center
Sun 11:47:51 PM 39.7025 -96.0869 77° East 468 539 35,000  Level Kansas City Center
Sun 11:48:49 PM 39.7364 -95.9000 77° East 473 544 35,000  Level Kansas City Center
Sun 11:49:52 PM 39.7656 -95.7403 77° East 475 547 35,000  Level Kansas City Center
Sun 11:50:51 PM 39.7936 -95.5794 77° East 475 547 35,000  Level Kansas City Center
Sun 11:51:51 PM 39.8208 -95.4183 78° East 475 547 35,000  Level Kansas City Center
Sun 11:52:54 PM 39.8539 -95.2253 77° East 484 557 35,000  Level Kansas City Center
Sun 11:53:52 PM 39.8828 -95.0611 77° East 485 558 35,000  Level Kansas City Center
Sun 11:54:53 PM 39.9100 -94.8969 78° East 484 557 35,000  Level Kansas City Center
Sun 11:55:54 PM 39.9431 -94.7056 77° East 483 556 35,000  Level Kansas City Center
Sun 11:56:57 PM 39.9703 -94.5417 78° East 483 556 35,000  Level Kansas City Center
Sun 11:57:55 PM 39.9967 -94.3794 78° East 478 550 35,000  Level Kansas City Center
Sun 11:58:56 PM 40.0258 -94.1944 78° East 467 537 35,000  Level Kansas City Center
Sun 11:59:56 PM 40.0483 -94.0581 78° East 463 533 35,000  Level Kansas City Center
Mon 12:01:00 AM 40.0731 -93.8936 79° East 467 537 35,000  Level Kansas City Center
Mon 12:02:00 AM 40.1044 -93.6969 78° East 467 537 35,000  Level Kansas City Center
Mon 12:02:58 AM 40.1306 -93.5286 78° East 474 545 35,000  Level Kansas City Center
Mon 12:03:58 AM 40.1575 -93.3592 78° East 480 552 35,000  Level Kansas City Center
Mon 12:05:02 AM 40.1836 -93.1906 78° East 478 550 35,000  Level Kansas City Center
Mon 12:06:00 AM 40.2108 -93.0161 78° East 473 544 35,000  Level Kansas City Center
Mon 12:07:02 AM 40.2347 -92.8550 79° East 471 542 35,000  Level Kansas City Center
Mon 12:08:01 AM 40.2603 -92.6942 78° East 472 543 35,000  Level Kansas City Center
Mon 12:09:04 AM 40.2892 -92.5103 78° East 465 535 35,000  Level Kansas City Center
Mon 12:10:03 AM 40.3128 -92.3425 79° East 468 539 35,000  Level Kansas City Center
Mon 12:11:02 AM 40.3367 -92.1747 79° East 472 543 35,000 -397 Level Kansas City Center
Mon 12:12:04 AM 40.3594 -92.0100 80° East 465 535 34,200 -1,289 Descending Kansas City Center
Mon 12:13:03 AM 40.3808 -91.8494 80° East 455 524 32,400 -2,000 Descending Kansas City Center
Mon 12:14:04 AM 40.4047 -91.6847 79° East 459 528 30,200 -2,182 Descending Kansas City Center
Mon 12:15:04 AM 40.4281 -91.5186 79° East 463 533 28,000 -2,231 Descending Kansas City Center
Mon 12:16:05 AM 40.4503 -91.3511 80° East 467 537 25,700 -2,331 Descending Kansas City Center
Mon 12:17:05 AM 40.4731 -91.1842 80° East 462 532 23,300 -2,450 Descending Kansas City Center
Mon 12:18:05 AM 40.4953 -91.0231 80° East 452 520 20,800 -2,571 Descending Kansas City Center
Mon 12:19:11 AM 40.5194 -90.8458 80° East 412 474 17,900 -2,409 Descending Chicago Center
Mon 12:20:12 AM 40.5369 -90.7094 80° East 382 440 15,700 -2,331 Descending Chicago Center
Mon 12:21:12 AM 40.5536 -90.5822 80° East 359 413 13,200 -2,000 Descending Chicago Center
Mon 12:22:12 AM 40.5678 -90.4689 81° East 313 360 11,700 -1,140 Descending Chicago Center
Mon 12:23:13 AM 40.5811 -90.3639 80° East 293 337 10,900 -1,041 Descending Chicago Center
Mon 12:24:13 AM 40.5939 -90.2619 81° East 284 327 9,600 -1,400 Descending Chicago Center
Mon 12:25:13 AM 40.6072 -90.1564 81° East 290 334 8,100 -1,636 Descending Chicago Center
Mon 12:26:14 AM 40.6247 -90.0619 76° East 278 320 6,300 -1,736 Descending Chicago Center
Mon 12:27:14 AM 40.6650 -89.9828 56° Northeast 266 306 4,600 -1,350 Descending Chicago Center
Mon 12:28:14 AM 40.6986 -89.9092 59° Northeast 250 288 3,600 -893 Descending Chicago Center
Mon 12:29:15 AM 40.7200 -89.8450 66° East 209 241 2,800 -645 Descending Chicago Center
Mon 12:30:15 AM 40.7178 -89.8022 94° East 171 197 2,300 -550 Descending Chicago Center
Mon 12:31:15 AM 40.7025 -89.7617 116° Southeast 140 161 1,700 -645 Descending Chicago Center
Mon 12:32:16 AM 40.6811 -89.7269 129° Southeast 127 146 1,000 -496 Descending Chicago Center
Mon 12:33:16 AM 40.6611 -89.6911 126° Southeast 126 145 700 -300 Descending Chicago Center

Login

Don't have an account? Register now (free) for customized features, flight alerts, and more!